createdAt,value
2018-12-13T00:01:43.176Z,102435.89
2018-12-13T00:04:17.840Z,102435.58
2018-12-13T00:06:52.869Z,102434.27
2018-12-13T00:09:21.233Z,102439.39
2018-12-13T00:11:50.589Z,102431.48
2018-12-13T00:14:18.964Z,102427.68
2018-12-13T00:16:47.605Z,102427.31
2018-12-13T00:19:16.195Z,102424.84
2018-12-13T00:21:44.580Z,102420.63
2018-12-13T00:24:12.982Z,102423.22
2018-12-13T00:26:41.308Z,102415.27
2018-12-13T00:29:15.871Z,102424.56
2018-12-13T00:31:51.335Z,102419.98
2018-12-13T00:34:25.225Z,102417.05
2018-12-13T00:37:03.477Z,102411.58
2018-12-13T00:39:35.442Z,102410.80
2018-12-13T00:42:10.517Z,102404.88
2018-12-13T00:44:44.330Z,102405.36
2018-12-13T00:47:19.057Z,102394.82
2018-12-13T00:49:53.688Z,102395.27
2018-12-13T00:52:28.508Z,102395.26
2018-12-13T00:55:03.069Z,102395.30
2018-12-13T00:57:38.399Z,102391.89
2018-12-13T01:00:12.714Z,102386.86
2018-12-13T01:02:54.016Z,102378.47
2018-12-13T01:05:30.188Z,102382.68
2018-12-13T01:07:58.595Z,102377.21
2018-12-13T01:10:27.435Z,102376.77
2018-12-13T01:12:57.164Z,102379.69
2018-12-13T01:15:27.587Z,102374.62
2018-12-13T01:17:56.036Z,102371.70
2018-12-13T01:20:30.185Z,102369.55
2018-12-13T01:23:01.613Z,102367.48
2018-12-13T01:25:35.526Z,102367.03
2018-12-13T01:28:10.772Z,102363.63
2018-12-13T01:30:46.799Z,102364.08
2018-12-13T01:33:22.608Z,102361.97
2018-12-13T01:35:56.897Z,102359.86
2018-12-13T01:38:31.026Z,102353.94
2018-12-13T01:41:05.873Z,102348.87
2018-12-13T01:43:37.818Z,102353.94
2018-12-13T01:46:12.900Z,102353.45
2018-12-13T01:50:51.321Z,102350.66
2018-12-13T01:53:27.221Z,102342.99
2018-12-13T01:56:01.435Z,102339.19
2018-12-13T01:58:36.106Z,102337.48
2018-12-13T02:01:10.917Z,102335.41
2018-12-13T02:03:45.766Z,102334.97
2018-12-13T02:06:19.807Z,102335.73
2018-12-13T02:08:55.038Z,102331.11
2018-12-13T02:11:29.181Z,102331.52
2018-12-13T02:14:10.950Z,102324.38
2018-12-13T02:16:45.758Z,102323.53
2018-12-13T02:19:22.032Z,102321.87
2018-12-13T02:21:56.333Z,102314.36
2018-12-13T02:24:30.302Z,102314.32
2018-12-13T02:26:59.085Z,102318.46
2018-12-13T02:29:35.150Z,102311.28
2018-12-13T02:32:08.933Z,102303.78
2018-12-13T02:34:42.896Z,102292.83
2018-12-13T02:37:15.993Z,102298.67
2018-12-13T02:39:52.092Z,102302.00
2018-12-13T02:42:26.875Z,102294.86
2018-12-13T02:45:01.979Z,102290.23
2018-12-13T02:47:36.419Z,102290.61
2018-12-13T02:50:08.607Z,102286.34
2018-12-13T02:52:43.778Z,102282.53
2018-12-13T02:55:18.572Z,102285.89
2018-12-13T02:57:55.103Z,102288.75
2018-12-13T03:00:31.140Z,102284.95
2018-12-13T03:03:05.501Z,102286.20
2018-12-13T03:05:39.946Z,102290.77
2018-12-13T03:08:13.795Z,102291.17
2018-12-13T03:10:49.254Z,102286.55
2018-12-13T03:13:21.566Z,102286.90
2018-12-13T03:15:55.995Z,102286.00
2018-12-13T03:18:24.456Z,102279.33
2018-12-13T03:20:58.237Z,102283.09
2018-12-13T03:23:32.540Z,102275.55
2018-12-13T03:26:08.476Z,102280.08
2018-12-13T03:28:42.450Z,102280.92
2018-12-13T03:31:18.519Z,102278.82
2018-12-13T03:33:52.970Z,102278.81
2018-12-13T03:36:27.148Z,102283.78
2018-12-13T03:39:01.351Z,102278.31
2018-12-13T03:41:36.014Z,102277.46
2018-12-13T03:44:10.423Z,102276.59
2018-12-13T03:49:08.092Z,102283.67
2018-12-13T03:51:42.350Z,102280.26
2018-12-13T03:54:16.759Z,102275.22
2018-12-13T03:56:52.008Z,102279.80
2018-12-13T03:59:26.247Z,102282.70
2018-12-13T04:02:00.628Z,102279.75
2018-12-13T04:04:34.749Z,102286.92
2018-12-13T04:07:09.240Z,102280.25
2018-12-13T04:09:43.693Z,102276.09
2018-12-13T04:12:18.203Z,102277.85
2018-12-13T04:14:52.841Z,102270.77
2018-12-13T04:17:27.012Z,102261.15
2018-12-13T04:22:52.746Z,102262.05
2018-12-13T04:25:27.441Z,102260.34
2018-12-13T04:28:01.829Z,102255.38
2018-12-13T04:30:36.204Z,102254.56
2018-12-13T04:33:10.365Z,102250.80
2018-12-13T04:35:44.764Z,102254.12
2018-12-13T04:38:17.161Z,102253.72
2018-12-13T04:40:51.790Z,102255.78
2018-12-13T04:43:25.862Z,102252.00
2018-12-13T04:46:01.055Z,102254.56
2018-12-13T04:48:35.662Z,102257.02
2018-12-13T04:51:08.101Z,102258.73
2018-12-13T04:53:41.883Z,102258.33
2018-12-13T04:56:16.529Z,102253.72
2018-12-13T04:58:50.607Z,102252.02
2018-12-13T05:01:25.212Z,102247.44
2018-12-13T05:03:59.538Z,102252.45
2018-12-13T05:06:34.026Z,102253.72
2018-12-13T05:09:09.148Z,102250.80
2018-12-13T05:11:43.966Z,102246.19
2018-12-13T05:14:18.136Z,102242.86
2018-12-13T05:16:52.904Z,102252.45
2018-12-13T05:19:27.393Z,102248.25
2018-12-13T05:22:01.750Z,102245.38
2018-12-13T05:24:36.917Z,102242.02
2018-12-13T05:27:11.363Z,102249.95
2018-12-13T05:29:44.674Z,102242.02
2018-12-13T05:32:20.091Z,102240.75
2018-12-13T05:34:54.489Z,102239.06
2018-12-13T05:37:29.482Z,102233.67
2018-12-13T05:40:03.673Z,102226.91
2018-12-13T05:42:36.785Z,102230.67
2018-12-13T05:45:10.597Z,102228.16
2018-12-13T05:47:44.785Z,102226.09
2018-12-13T05:50:19.367Z,102231.08
2018-12-13T05:52:53.139Z,102231.16
2018-12-13T05:55:28.257Z,102238.65
2018-12-13T05:58:03.296Z,102238.60
2018-12-13T06:00:37.859Z,102231.47
2018-12-13T06:03:14.368Z,102226.05
2018-12-13T06:05:48.898Z,102221.84
2018-12-13T06:08:23.658Z,102227.71
2018-12-13T06:10:59.017Z,102224.79
2018-12-13T06:13:34.227Z,102229.86
2018-12-13T06:16:28.309Z,102228.55
2018-12-13T06:34:18.479Z,102221.47
2018-12-13T06:44:54.008Z,102224.34
2018-12-13T06:47:29.981Z,102224.73
2018-12-13T06:50:04.447Z,102226.41
2018-12-13T06:52:50.680Z,102218.48
2018-12-13T06:55:31.659Z,102216.31
2018-12-13T06:58:20.233Z,102212.10
2018-12-13T07:01:05.246Z,102224.66
2018-12-13T07:03:40.047Z,102228.86
2018-12-13T07:17:39.058Z,102240.20
